Time;durP1;ratioP1;P1;durP2;ratioP2;P2;SDS_P1;SDS_P2;PMS_P1;PMS_P2;Temp;Humidity;BMP_temperature;BMP_pressure;BME280_temperature;BME280_humidity;BME280_pressure;Samples;Min_cycle;Max_cycle;Signal;HPM_P1;HPM_P2
2022/02/04 00:24:27;;;;;;;;;;;23.60;49.30;;;;;;1472813;78;1942;-74
2022/02/04 00:26:34;;;;;;;;;;;23.60;49.30;;;;;;1479699;80;736;-72
2022/02/04 00:28:54;;;;;;;;;;;23.60;49.40;;;;;;1481361;78;1633;-73
2022/02/04 00:31:01;;;;;;;;;;;23.60;49.40;;;;;;1478523;80;1668;-72
2022/02/04 00:32:54;;;;;;;;;;;23.60;49.40;;;;;;1477805;80;1619;-73
2022/02/04 00:35:08;;;;;;;;;;;23.60;49.40;;;;;;1480078;80;1662;-72
2022/02/04 00:39:21;;;;;;;;;;;23.60;49.40;;;;;;1480297;80;835;-73
2022/02/04 00:41:22;;;;;;;;;;;23.60;49.40;;;;;;1479401;80;1614;-73
2022/02/04 00:43:21;;;;;;;;;;;23.50;49.30;;;;;;1479950;80;1943;-73
2022/02/04 00:45:40;;;;;;;;;;;23.60;49.20;;;;;;1481323;79;789;-73
2022/02/04 00:47:42;;;;;;;;;;;23.60;49.30;;;;;;1478970;78;1671;-72
2022/02/04 00:50:06;;;;;;;;;;;23.60;49.30;;;;;;1484020;78;1057;-73
2022/02/04 00:52:21;;;;;;;;;;;23.60;49.40;;;;;;1517455;78;1662;-73
2022/02/04 00:57:32;;;;;;;;;;;23.60;49.40;;;;;;1519475;78;1650;-74
2022/02/04 01:26:36;;;;;;;;;;;23.60;49.40;;;;;;1480085;80;1650;-72
2022/02/04 01:28:39;;;;;;;;;;;23.60;49.40;;;;;;1481429;78;782;-72
2022/02/04 01:30:43;;;;;;;;;;;23.60;49.50;;;;;;1480373;80;733;-71
2022/02/04 01:32:45;;;;;;;;;;;23.60;49.40;;;;;;1480200;80;1163;-72
2022/02/04 01:34:47;;;;;;;;;;;23.60;49.40;;;;;;1480359;80;988;-73
2022/02/04 01:36:49;;;;;;;;;;;23.60;49.40;;;;;;1481237;79;728;-72
2022/02/04 01:38:51;;;;;;;;;;;23.60;49.40;;;;;;1480400;80;795;-72
2022/02/04 01:40:53;;;;;;;;;;;23.60;49.40;;;;;;1480454;80;773;-72
2022/02/04 01:42:54;;;;;;;;;;;23.60;49.40;;;;;;1480181;80;1141;-72
2022/02/04 01:44:56;;;;;;;;;;;23.60;49.40;;;;;;1481048;79;1948;-74
2022/02/04 01:46:58;;;;;;;;;;;23.60;49.40;;;;;;1480330;80;696;-71
2022/02/04 01:49:00;;;;;;;;;;;23.60;49.40;;;;;;1481269;79;679;-72
2022/02/04 01:51:02;;;;;;;;;;;23.60;49.40;;;;;;1487060;79;778;-75
2022/02/04 01:53:04;;;;;;;;;;;23.60;49.40;;;;;;1499372;78;1169;-73
2022/02/04 01:55:06;;;;;;;;;;;23.60;49.30;;;;;;1503274;79;753;-74
2022/02/04 01:57:08;;;;;;;;;;;23.60;49.40;;;;;;1502432;79;736;-75
2022/02/04 01:59:10;;;;;;;;;;;23.60;49.40;;;;;;1500480;79;755;-73
2022/02/04 02:01:12;;;;;;;;;;;23.60;49.40;;;;;;1497567;78;1096;-73
2022/02/04 02:03:14;;;;;;;;;;;23.60;49.40;;;;;;1480408;80;1161;-72
2022/02/04 02:05:16;;;;;;;;;;;23.60;49.50;;;;;;1480122;80;1963;-71
2022/02/04 02:07:21;;;;;;;;;;;23.60;49.50;;;;;;1480488;80;695;-74
2022/02/04 02:09:26;;;;;;;;;;;23.60;49.40;;;;;;1488534;78;1645;-76
2022/02/04 02:11:25;;;;;;;;;;;23.60;49.50;;;;;;1479694;80;1081;-73
2022/02/04 02:15:50;;;;;;;;;;;23.60;49.40;;;;;;1456507;82;849;-74
2022/02/04 02:58:04;;;;;;;;;;;23.70;49.70;;;;;;1484755;78;1228;-75
2022/02/04 03:00:08;;;;;;;;;;;23.60;49.50;;;;;;1496670;78;1650;-75
2022/02/04 03:02:00;;;;;;;;;;;23.60;49.50;;;;;;1501732;78;1618;-76
2022/02/04 03:04:07;;;;;;;;;;;23.60;49.50;;;;;;1505765;78;1927;-75
2022/02/04 03:06:08;;;;;;;;;;;23.60;49.50;;;;;;1500571;77;1661;-74
2022/02/04 03:08:10;;;;;;;;;;;23.60;49.50;;;;;;1499809;78;692;-73
2022/02/04 03:10:11;;;;;;;;;;;23.70;49.60;;;;;;1498999;78;776;-72
2022/02/04 03:12:13;;;;;;;;;;;23.60;49.40;;;;;;1495168;78;721;-72
2022/02/04 03:14:15;;;;;;;;;;;23.60;49.50;;;;;;1504588;78;1188;-75
2022/02/04 03:16:18;;;;;;;;;;;23.60;49.50;;;;;;1498456;78;750;-77
2022/02/04 03:18:23;;;;;;;;;;;23.60;49.50;;;;;;1501481;78;726;-73
2022/02/04 03:20:24;;;;;;;;;;;23.60;49.50;;;;;;1494360;78;1697;-74
2022/02/04 03:22:26;;;;;;;;;;;23.60;49.60;;;;;;1488601;78;841;-74
2022/02/04 03:24:29;;;;;;;;;;;23.60;49.60;;;;;;1508052;78;1940;-77
2022/02/04 03:26:40;;;;;;;;;;;23.60;49.60;;;;;;1500274;78;725;-73
2022/02/04 03:28:34;;;;;;;;;;;23.60;49.60;;;;;;1504371;77;1702;-75
2022/02/04 03:30:38;;;;;;;;;;;23.60;49.60;;;;;;1508090;78;667;-73
2022/02/04 03:32:45;;;;;;;;;;;23.60;49.60;;;;;;1497360;78;2024;-72
2022/02/04 03:34:43;;;;;;;;;;;23.60;49.60;;;;;;1508700;78;1625;-73
2022/02/04 03:36:45;;;;;;;;;;;23.70;49.80;;;;;;1509063;78;775;-73
2022/02/04 03:38:47;;;;;;;;;;;23.60;49.60;;;;;;1513530;78;880;-72
2022/02/04 03:40:49;;;;;;;;;;;23.70;49.70;;;;;;1502478;78;724;-73
2022/02/04 03:42:51;;;;;;;;;;;23.80;49.70;;;;;;1511447;78;1144;-74
2022/02/04 03:44:53;;;;;;;;;;;23.80;49.60;;;;;;1493378;78;1935;-72
2022/02/04 03:46:55;;;;;;;;;;;23.80;49.60;;;;;;1495859;78;817;-72
2022/02/04 03:48:56;;;;;;;;;;;23.80;49.60;;;;;;1499123;78;944;-72
2022/02/04 03:50:58;;;;;;;;;;;23.90;49.60;;;;;;1508890;78;811;-73
2022/02/04 03:53:00;;;;;;;;;;;23.80;49.40;;;;;;1505693;78;1146;-73
2022/02/04 03:55:02;;;;;;;;;;;23.80;49.40;;;;;;1498598;78;744;-73
2022/02/04 03:57:04;;;;;;;;;;;23.80;49.40;;;;;;1502509;78;668;-72
2022/02/04 03:59:06;;;;;;;;;;;23.80;49.40;;;;;;1505622;78;906;-74
2022/02/04 04:01:08;;;;;;;;;;;24.00;49.40;;;;;;1490641;78;766;-78
2022/02/04 04:03:10;;;;;;;;;;;23.90;49.40;;;;;;1502141;78;1257;-74
2022/02/04 04:05:12;;;;;;;;;;;24.00;49.40;;;;;;1507489;78;1967;-74
2022/02/04 04:07:14;;;;;;;;;;;23.90;49.40;;;;;;1509175;78;814;-74
2022/02/04 04:09:16;;;;;;;;;;;23.90;49.40;;;;;;1509712;78;740;-71
2022/02/04 04:11:18;;;;;;;;;;;24.00;49.40;;;;;;1499123;77;758;-74
2022/02/04 04:13:20;;;;;;;;;;;23.90;49.40;;;;;;1500995;78;1225;-74
2022/02/04 04:15:22;;;;;;;;;;;24.00;49.30;;;;;;1507524;78;777;-74
2022/02/04 04:17:24;;;;;;;;;;;24.00;49.20;;;;;;1508180;78;782;-72
2022/02/04 04:19:26;;;;;;;;;;;24.00;49.20;;;;;;1504935;77;759;-73
2022/02/04 04:21:28;;;;;;;;;;;24.10;49.20;;;;;;1506081;78;736;-72
2022/02/04 04:23:30;;;;;;;;;;;24.00;49.10;;;;;;1507604;78;1208;-73
2022/02/04 04:25:32;;;;;;;;;;;24.10;49.10;;;;;;1505629;78;1941;-73
2022/02/04 04:27:34;;;;;;;;;;;24.10;49.10;;;;;;1513430;78;712;-73
2022/02/04 04:29:36;;;;;;;;;;;24.10;49.00;;;;;;1497496;78;725;-77
2022/02/04 04:31:38;;;;;;;;;;;24.00;48.90;;;;;;1511633;79;763;-72
2022/02/04 04:33:40;;;;;;;;;;;24.00;48.90;;;;;;1512025;79;1170;-73
2022/02/04 04:35:42;;;;;;;;;;;24.10;49.00;;;;;;1489707;79;703;-73
2022/02/04 04:37:49;;;;;;;;;;;24.20;48.90;;;;;;1480291;80;750;-73
2022/02/04 04:40:04;;;;;;;;;;;24.10;48.90;;;;;;1480673;79;1563;-72
2022/02/04 04:42:12;;;;;;;;;;;24.20;48.90;;;;;;1477917;80;1129;-72
2022/02/04 05:28:12;;;;;;;;;;;24.20;48.40;;;;;;1480252;78;897;-71
2022/02/04 05:30:02;;;;;;;;;;;24.20;48.40;;;;;;1478775;79;1685;-73
2022/02/04 05:32:04;;;;;;;;;;;24.20;48.40;;;;;;1488853;78;853;-75
2022/02/04 05:34:06;;;;;;;;;;;24.20;48.40;;;;;;1479917;79;1127;-74
2022/02/04 05:36:09;;;;;;;;;;;24.20;48.40;;;;;;1481548;78;755;-74
2022/02/04 05:38:13;;;;;;;;;;;24.20;48.40;;;;;;1484357;78;688;-75
2022/02/04 05:40:18;;;;;;;;;;;24.20;48.40;;;;;;1480143;78;1175;-74
2022/02/04 05:42:23;;;;;;;;;;;24.20;48.30;;;;;;1479899;78;1012;-73
2022/02/04 05:44:21;;;;;;;;;;;24.20;48.30;;;;;;1484073;77;1857;-73
2022/02/04 05:46:31;;;;;;;;;;;24.30;48.40;;;;;;1480264;78;1932;-72
2022/02/04 05:48:28;;;;;;;;;;;24.30;48.40;;;;;;1477888;78;1061;-72
2022/02/04 05:50:51;;;;;;;;;;;24.30;48.40;;;;;;1476904;78;726;-71
2022/02/04 05:53:02;;;;;;;;;;;24.30;48.30;;;;;;1478334;79;1759;-71
2022/02/04 05:55:14;;;;;;;;;;;24.30;48.40;;;;;;1483153;78;1721;-72
2022/02/04 05:59:30;;;;;;;;;;;24.30;48.40;;;;;;1494574;77;884;-69
2022/02/04 06:06:08;;;;;;;;;;;24.30;48.50;;;;;;1480190;80;1900;-73
2022/02/04 06:08:04;;;;;;;;;;;24.20;48.30;;;;;;1473165;79;1374;-70
2022/02/04 06:23:34;;;;;;;;;;;24.20;48.40;;;;;;1480154;79;1720;-68
2022/02/04 06:25:37;;;;;;;;;;;24.20;48.40;;;;;;1480315;80;1920;-72
2022/02/04 06:27:39;;;;;;;;;;;24.20;48.40;;;;;;1480188;80;725;-72
2022/02/04 06:29:41;;;;;;;;;;;24.20;48.40;;;;;;1481126;79;733;-72
2022/02/04 06:31:42;;;;;;;;;;;24.20;48.30;;;;;;1480320;80;784;-72
2022/02/04 06:33:44;;;;;;;;;;;24.20;48.30;;;;;;1480288;80;1143;-73
2022/02/04 06:35:47;;;;;;;;;;;24.20;48.20;;;;;;1486410;78;738;-73
2022/02/04 06:37:48;;;;;;;;;;;24.20;48.30;;;;;;1493391;78;800;-73
2022/02/04 06:39:50;;;;;;;;;;;24.10;48.30;;;;;;1499035;77;796;-73
2022/02/04 06:41:52;;;;;;;;;;;24.10;48.20;;;;;;1478696;78;757;-72
2022/02/04 06:43:55;;;;;;;;;;;24.20;48.20;;;;;;1480944;78;1144;-75
2022/02/04 06:45:57;;;;;;;;;;;24.10;48.20;;;;;;1477872;78;1915;-72
2022/02/04 06:47:59;;;;;;;;;;;24.20;48.10;;;;;;1480134;78;784;-74
2022/02/04 06:50:01;;;;;;;;;;;24.20;48.10;;;;;;1491646;78;849;-74
2022/02/04 06:52:04;;;;;;;;;;;24.20;48.00;;;;;;1476955;78;737;-73
2022/02/04 06:54:05;;;;;;;;;;;24.20;47.90;;;;;;1487060;78;1132;-80
2022/02/04 06:56:07;;;;;;;;;;;24.20;47.70;;;;;;1498456;77;742;-74
2022/02/04 06:58:11;;;;;;;;;;;24.10;47.50;;;;;;1485966;78;790;-75
2022/02/04 07:00:14;;;;;;;;;;;24.10;47.60;;;;;;1490625;78;792;-73
2022/02/04 07:02:16;;;;;;;;;;;24.10;47.50;;;;;;1482579;78;710;-73
2022/02/04 07:04:18;;;;;;;;;;;24.20;47.40;;;;;;1488286;78;1190;-74
2022/02/04 07:06:20;;;;;;;;;;;24.10;47.40;;;;;;1491116;78;1955;-75
2022/02/04 07:08:31;;;;;;;;;;;24.00;47.30;;;;;;1488063;78;785;-74
2022/02/04 07:10:37;;;;;;;;;;;24.10;47.40;;;;;;1494436;78;1741;-74
2022/02/04 07:12:36;;;;;;;;;;;24.10;47.40;;;;;;1496891;78;1580;-74
2022/02/04 07:21:20;;;;;;;;;;;24.20;47.30;;;;;;1495309;78;1644;-74
2022/02/04 07:23:22;;;;;;;;;;;24.10;47.30;;;;;;1491439;78;1185;-76
2022/02/04 07:25:24;;;;;;;;;;;24.10;47.20;;;;;;1493233;78;1931;-76
2022/02/04 07:27:26;;;;;;;;;;;24.10;47.20;;;;;;1491856;78;765;-76
2022/02/04 07:29:29;;;;;;;;;;;24.10;47.20;;;;;;1496018;78;770;-72
2022/02/04 07:31:35;;;;;;;;;;;24.10;47.20;;;;;;1487227;78;671;-72
2022/02/04 07:33:47;;;;;;;;;;;24.20;47.20;;;;;;1492083;78;1248;-73
2022/02/04 07:42:44;;;;;;;;;;;24.20;47.20;;;;;;1487538;78;1635;-72
2022/02/04 07:44:46;;;;;;;;;;;24.20;47.30;;;;;;1494753;78;732;-73
2022/02/04 07:46:48;;;;;;;;;;;24.30;47.40;;;;;;1497829;77;1923;-75
2022/02/04 07:48:50;;;;;;;;;;;24.30;47.30;;;;;;1503189;78;802;-72
2022/02/04 07:51:01;;;;;;;;;;;24.30;47.40;;;;;;1508197;78;835;-72
2022/02/04 07:53:03;;;;;;;;;;;24.30;47.30;;;;;;1501094;78;1159;-73
2022/02/04 07:55:05;;;;;;;;;;;24.30;47.30;;;;;;1501897;78;748;-73
2022/02/04 07:57:07;;;;;;;;;;;24.30;47.30;;;;;;1497699;78;779;-73
2022/02/04 07:59:10;;;;;;;;;;;24.20;47.20;;;;;;1497253;78;818;-79
2022/02/04 08:01:12;;;;;;;;;;;24.30;47.30;;;;;;1499456;78;885;-72
2022/02/04 08:03:41;;;;;;;;;;;24.30;47.30;;;;;;1495324;78;1155;-71
2022/02/04 08:05:20;;;;;;;;;;;24.30;47.30;;;;;;1503093;78;1409;-75
2022/02/04 08:07:22;;;;;;;;;;;24.30;47.30;;;;;;1513611;77;1925;-72
2022/02/04 08:14:17;;;;;;;;;;;24.30;47.40;;;;;;1507170;78;1636;-71
2022/02/04 08:19:07;;;;;;;;;;;24.30;47.50;;;;;;1510035;78;862;-73
2022/02/04 08:21:17;;;;;;;;;;;24.30;47.40;;;;;;1503099;77;968;-72
2022/02/04 08:25:09;;;;;;;;;;;24.40;47.50;;;;;;1500616;78;781;-74
2022/02/04 08:29:16;;;;;;;;;;;24.40;47.50;;;;;;1509992;78;861;-71
2022/02/04 08:38:19;;;;;;;;;;;24.40;47.50;;;;;;1503874;78;881;-73
2022/02/04 08:49:25;;;;;;;;;;;24.40;47.60;;;;;;1501213;78;833;-72
2022/02/04 08:51:37;;;;;;;;;;;24.40;47.50;;;;;;1494049;78;1701;-71
2022/02/04 08:55:54;;;;;;;;;;;24.40;47.60;;;;;;1482782;78;1637;-72
2022/02/04 09:00:21;;;;;;;;;;;24.40;47.70;;;;;;1495024;78;650;-72
2022/02/04 09:02:19;;;;;;;;;;;24.40;47.70;;;;;;1494710;77;1672;-75
2022/02/04 09:04:19;;;;;;;;;;;24.50;47.70;;;;;;1491046;78;1626;-72
2022/02/04 09:06:34;;;;;;;;;;;24.40;47.70;;;;;;1483481;78;1931;-73
2022/02/04 09:08:29;;;;;;;;;;;24.40;47.80;;;;;;1486815;78;1685;-71
2022/02/04 09:10:29;;;;;;;;;;;24.40;47.80;;;;;;1481006;78;1692;-75
2022/02/04 09:17:04;;;;;;;;;;;24.20;46.60;;;;;;1488222;78;764;-73
2022/02/04 09:19:20;;;;;;;;;;;24.20;46.20;;;;;;1489893;78;1616;-73
2022/02/04 09:23:10;;;;;;;;;;;24.20;45.80;;;;;;1479817;79;1118;-73
2022/02/04 09:25:12;;;;;;;;;;;24.10;45.40;;;;;;1480175;79;824;-73
2022/02/04 09:27:14;;;;;;;;;;;24.00;45.00;;;;;;1480483;78;1936;-73
2022/02/04 09:29:16;;;;;;;;;;;24.10;45.00;;;;;;1477951;78;721;-72
2022/02/04 09:31:18;;;;;;;;;;;24.00;44.50;;;;;;1475832;78;736;-72
2022/02/04 09:33:19;;;;;;;;;;;24.00;44.40;;;;;;1486664;78;1204;-72
2022/02/04 09:35:22;;;;;;;;;;;23.90;44.40;;;;;;1489494;78;793;-72
2022/02/04 09:37:24;;;;;;;;;;;23.90;44.30;;;;;;1487063;78;761;-73
2022/02/04 09:39:26;;;;;;;;;;;23.90;44.30;;;;;;1479786;78;726;-73
2022/02/04 09:41:28;;;;;;;;;;;23.80;44.20;;;;;;1479379;78;709;-72
2022/02/04 09:43:30;;;;;;;;;;;23.80;44.00;;;;;;1484919;78;1155;-73
2022/02/04 09:45:35;;;;;;;;;;;23.90;44.00;;;;;;1494889;78;764;-72
2022/02/04 09:47:37;;;;;;;;;;;23.70;43.90;;;;;;1492495;78;1943;-73
2022/02/04 09:49:43;;;;;;;;;;;23.70;43.70;;;;;;1491090;78;863;-72
2022/02/04 10:04:21;;;;;;;;;;;23.70;43.60;;;;;;1481356;78;1464;-73
2022/02/04 10:08:19;;;;;;;;;;;23.40;42.90;;;;;;1482838;78;1896;-76
2022/02/04 10:12:32;;;;;;;;;;;23.40;42.80;;;;;;1479861;78;871;-71
2022/02/04 10:17:12;;;;;;;;;;;23.40;42.70;;;;;;1498775;78;889;-72
2022/02/04 10:20:31;;;;;;;;;;;23.30;42.60;;;;;;1481608;78;871;-72
2022/02/04 10:22:34;;;;;;;;;;;23.30;42.60;;;;;;1484650;78;721;-72
2022/02/04 10:24:36;;;;;;;;;;;23.30;42.60;;;;;;1482162;78;1186;-72
2022/02/04 10:26:38;;;;;;;;;;;23.30;42.60;;;;;;1484399;78;1939;-72
2022/02/04 10:28:40;;;;;;;;;;;23.30;42.60;;;;;;1480894;78;689;-71
2022/02/04 10:30:42;;;;;;;;;;;23.20;42.50;;;;;;1497579;78;738;-71
2022/02/04 10:32:48;;;;;;;;;;;23.20;42.40;;;;;;1479430;78;1137;-72
2022/02/04 10:35:09;;;;;;;;;;;23.20;42.30;;;;;;1482070;78;1191;-72
2022/02/04 10:37:29;;;;;;;;;;;23.20;42.30;;;;;;1484227;78;727;-72
2022/02/04 10:39:45;;;;;;;;;;;23.20;42.20;;;;;;1488099;78;1682;-71
2022/02/04 10:41:41;;;;;;;;;;;23.10;42.30;;;;;;1493155;78;1520;-72
2022/02/04 10:43:55;;;;;;;;;;;23.20;42.10;;;;;;1487371;78;1144;-71
2022/02/04 10:45:55;;;;;;;;;;;23.10;42.20;;;;;;1478412;78;1673;-71
2022/02/04 10:50:06;;;;;;;;;;;23.10;41.90;;;;;;1509451;78;883;-72
2022/02/04 10:52:25;;;;;;;;;;;23.00;41.90;;;;;;1489570;78;955;-71
2022/02/04 10:54:51;;;;;;;;;;;23.10;41.90;;;;;;1478118;78;1560;-79
2022/02/04 11:03:08;;;;;;;;;;;23.00;41.70;;;;;;1481780;78;1130;-73
2022/02/04 11:09:25;;;;;;;;;;;22.90;41.80;;;;;;1478492;78;742;-73
2022/02/04 11:11:44;;;;;;;;;;;22.90;41.80;;;;;;1484021;78;1687;-73
2022/02/04 11:33:13;;;;;;;;;;;23.20;43.10;;;;;;1473578;78;1659;-73
2022/02/04 11:34:26;;;;;;;;;;;23.20;43.20;;;;;;1453036;78;1682;-73
2022/02/04 11:36:41;;;;;;;;;;;23.20;43.40;;;;;;1494725;78;1633;-73
2022/02/04 11:48:35;;;;;;;;;;;23.40;45.50;;;;;;1477632;79;1889;-72
2022/02/04 11:50:58;;;;;;;;;;;23.40;46.00;;;;;;1469906;78;1293;-72
2022/02/04 11:52:37;;;;;;;;;;;23.50;46.00;;;;;;1511484;78;1422;-73
2022/02/04 11:54:51;;;;;;;;;;;23.60;45.70;;;;;;1507553;77;1151;-72
2022/02/04 11:57:05;;;;;;;;;;;23.60;45.30;;;;;;1492630;78;1630;-70
2022/02/04 11:59:04;;;;;;;;;;;23.60;45.30;;;;;;1500993;78;1113;-73
2022/02/04 12:01:07;;;;;;;;;;;23.60;45.60;;;;;;1493541;78;774;-75
2022/02/04 12:03:29;;;;;;;;;;;23.70;45.80;;;;;;1501397;78;1918;-72
2022/02/04 12:05:31;;;;;;;;;;;23.70;45.90;;;;;;1481637;78;1643;-72
2022/02/04 12:07:36;;;;;;;;;;;23.70;45.90;;;;;;1487577;78;1942;-73
2022/02/04 12:09:40;;;;;;;;;;;23.70;46.00;;;;;;1482883;78;757;-72
2022/02/04 12:11:42;;;;;;;;;;;23.80;45.90;;;;;;1487869;78;931;-74
2022/02/04 12:14:03;;;;;;;;;;;23.80;45.90;;;;;;1497363;78;1170;-72
2022/02/04 12:16:10;;;;;;;;;;;23.90;46.00;;;;;;1485922;78;763;-73
2022/02/04 12:18:12;;;;;;;;;;;23.80;45.90;;;;;;1483567;78;1698;-72
2022/02/04 12:20:14;;;;;;;;;;;23.80;45.80;;;;;;1500622;78;940;-72
2022/02/04 12:22:17;;;;;;;;;;;23.90;45.90;;;;;;1498876;78;727;-72
2022/02/04 12:24:31;;;;;;;;;;;23.90;45.80;;;;;;1502350;77;1169;-72
2022/02/04 12:26:37;;;;;;;;;;;24.00;45.90;;;;;;1478521;78;714;-73
2022/02/04 12:28:39;;;;;;;;;;;23.90;45.80;;;;;;1490239;78;1903;-72
2022/02/04 12:30:45;;;;;;;;;;;23.90;45.80;;;;;;1495259;78;761;-71
2022/02/04 12:32:45;;;;;;;;;;;24.00;45.70;;;;;;1494864;78;1593;-72
2022/02/04 12:34:47;;;;;;;;;;;24.00;45.80;;;;;;1495836;78;787;-72
2022/02/04 12:36:54;;;;;;;;;;;24.00;45.80;;;;;;1496956;78;716;-72
2022/02/04 12:38:57;;;;;;;;;;;24.00;45.70;;;;;;1493051;77;1506;-73
2022/02/04 12:40:59;;;;;;;;;;;24.00;45.70;;;;;;1487671;78;674;-72
2022/02/04 12:43:01;;;;;;;;;;;24.00;45.70;;;;;;1503526;78;1191;-73
2022/02/04 12:45:05;;;;;;;;;;;24.10;45.70;;;;;;1488031;78;861;-72
2022/02/04 12:47:08;;;;;;;;;;;24.00;45.60;;;;;;1469727;78;1915;-72
2022/02/04 12:49:17;;;;;;;;;;;24.00;45.50;;;;;;1482163;78;1786;-72
2022/02/04 12:51:21;;;;;;;;;;;24.10;45.50;;;;;;1494702;78;717;-72
2022/02/04 12:53:27;;;;;;;;;;;24.00;45.40;;;;;;1478674;78;1582;-72
2022/02/04 12:55:37;;;;;;;;;;;24.00;45.40;;;;;;1482490;78;716;-73
2022/02/04 12:57:54;;;;;;;;;;;24.10;45.50;;;;;;1487608;78;1103;-72
2022/02/04 12:59:52;;;;;;;;;;;24.10;45.50;;;;;;1485851;78;1414;-72
2022/02/04 13:02:04;;;;;;;;;;;24.20;45.50;;;;;;1480487;78;1680;-73
2022/02/04 13:08:45;;;;;;;;;;;24.10;45.50;;;;;;1494454;78;1895;-71
2022/02/04 13:10:45;;;;;;;;;;;24.10;45.50;;;;;;1495832;78;1112;-72
2022/02/04 13:12:49;;;;;;;;;;;24.10;45.50;;;;;;1500505;78;1148;-79
2022/02/04 13:14:51;;;;;;;;;;;24.10;45.50;;;;;;1493433;77;1860;-72
2022/02/04 13:16:53;;;;;;;;;;;24.20;45.40;;;;;;1494203;78;588;-72
2022/02/04 13:18:59;;;;;;;;;;;24.20;45.40;;;;;;1490158;78;754;-71
2022/02/04 13:21:00;;;;;;;;;;;24.30;45.50;;;;;;1497663;77;1674;-74
2022/02/04 13:23:09;;;;;;;;;;;24.20;45.30;;;;;;1485891;78;1135;-72
2022/02/04 13:25:12;;;;;;;;;;;24.20;45.30;;;;;;1495496;78;733;-72
2022/02/04 13:27:14;;;;;;;;;;;24.20;45.20;;;;;;1487383;78;1939;-72
2022/02/04 13:29:16;;;;;;;;;;;24.20;45.20;;;;;;1496212;78;749;-73
2022/02/04 13:31:22;;;;;;;;;;;24.30;45.30;;;;;;1482846;78;722;-72
2022/02/04 13:33:23;;;;;;;;;;;24.20;45.20;;;;;;1492468;78;1621;-73
2022/02/04 13:35:27;;;;;;;;;;;24.30;45.30;;;;;;1492100;78;730;-73
2022/02/04 13:37:40;;;;;;;;;;;24.20;45.20;;;;;;1487730;78;849;-74
2022/02/04 13:39:49;;;;;;;;;;;24.20;45.10;;;;;;1496548;78;1575;-72
2022/02/04 13:44:05;;;;;;;;;;;24.20;45.10;;;;;;1487321;78;1236;-72
2022/02/04 13:45:58;;;;;;;;;;;24.20;45.00;;;;;;1482571;78;1511;-73
2022/02/04 13:48:14;;;;;;;;;;;24.20;45.00;;;;;;1497646;77;2072;-72
2022/02/04 13:52:22;;;;;;;;;;;24.20;45.00;;;;;;1489224;78;889;-74
2022/02/04 13:54:28;;;;;;;;;;;24.20;45.00;;;;;;1490912;78;1660;-74
2022/02/04 13:56:34;;;;;;;;;;;24.20;45.00;;;;;;1495191;77;1640;-73
2022/02/04 13:58:47;;;;;;;;;;;24.20;45.00;;;;;;1486591;78;1696;-78
2022/02/04 14:00:56;;;;;;;;;;;24.20;45.00;;;;;;1487809;78;1571;-70
2022/02/04 14:02:54;;;;;;;;;;;24.20;45.00;;;;;;1497378;78;1637;-74
2022/02/04 14:04:56;;;;;;;;;;;24.20;45.10;;;;;;1479933;78;1708;-74
2022/02/04 14:07:09;;;;;;;;;;;24.20;45.20;;;;;;1496059;78;2135;-74
2022/02/04 14:09:19;;;;;;;;;;;24.20;45.20;;;;;;1495060;78;1921;-73
2022/02/04 14:11:16;;;;;;;;;;;24.20;45.20;;;;;;1502191;77;1338;-73
2022/02/04 14:13:22;;;;;;;;;;;24.20;45.20;;;;;;1488490;78;1505;-73
2022/02/04 14:15:25;;;;;;;;;;;24.30;45.30;;;;;;1490024;78;744;-74
2022/02/04 14:17:28;;;;;;;;;;;24.20;45.30;;;;;;1487586;78;2119;-73
2022/02/04 14:19:30;;;;;;;;;;;24.20;45.30;;;;;;1482352;78;704;-74
2022/02/04 14:21:33;;;;;;;;;;;24.30;45.50;;;;;;1495892;78;720;-75
2022/02/04 14:23:35;;;;;;;;;;;24.30;45.60;;;;;;1485808;78;1174;-74
2022/02/04 14:25:48;;;;;;;;;;;24.30;45.50;;;;;;1490729;77;596;-80
2022/02/04 14:27:54;;;;;;;;;;;24.20;45.40;;;;;;1492620;77;1919;-75
2022/02/04 14:30:03;;;;;;;;;;;24.20;44.90;;;;;;1486500;78;976;-75
2022/02/04 14:32:06;;;;;;;;;;;24.20;45.10;;;;;;1486842;78;1735;-74
2022/02/04 14:50:48;;;;;;;;;;;24.30;45.20;;;;;;1482440;78;1974;-74
2022/02/04 14:52:29;;;;;;;;;;;24.20;45.20;;;;;;1474832;78;1452;-75
2022/02/04 15:01:54;;;;;;;;;;;24.30;45.20;;;;;;1492849;78;1628;-75
2022/02/04 15:05:17;;;;;;;;;;;24.30;45.20;;;;;;1480007;78;701;-76
2022/02/04 15:07:18;;;;;;;;;;;24.30;45.30;;;;;;1485910;78;1635;-73
2022/02/04 15:09:20;;;;;;;;;;;24.30;45.20;;;;;;1481990;78;1927;-74
2022/02/04 15:11:27;;;;;;;;;;;24.30;45.20;;;;;;1489001;78;720;-74
2022/02/04 15:13:25;;;;;;;;;;;24.30;45.20;;;;;;1479424;78;1640;-75
2022/02/04 15:15:27;;;;;;;;;;;24.30;45.20;;;;;;1481141;78;744;-74
2022/02/04 15:17:29;;;;;;;;;;;24.30;45.20;;;;;;1487572;78;737;-74
2022/02/04 15:19:33;;;;;;;;;;;24.30;45.20;;;;;;1483713;78;703;-74
2022/02/04 15:21:35;;;;;;;;;;;24.30;45.30;;;;;;1485547;78;1162;-74
2022/02/04 15:23:36;;;;;;;;;;;24.30;45.20;;;;;;1480933;78;1174;-74
2022/02/04 15:25:38;;;;;;;;;;;24.30;45.20;;;;;;1485857;78;736;-74
2022/02/04 15:27:47;;;;;;;;;;;24.30;45.30;;;;;;1480267;78;759;-74
2022/02/04 15:29:46;;;;;;;;;;;24.30;45.30;;;;;;1495649;78;1939;-72
2022/02/04 15:33:52;;;;;;;;;;;24.30;45.30;;;;;;1500981;78;1171;-75
2022/02/04 15:35:54;;;;;;;;;;;24.30;45.20;;;;;;1487017;77;598;-74
2022/02/04 15:37:56;;;;;;;;;;;24.30;45.20;;;;;;1479796;78;815;-74
2022/02/04 15:39:58;;;;;;;;;;;24.30;45.20;;;;;;1487844;78;712;-74
2022/02/04 15:42:08;;;;;;;;;;;24.30;45.20;;;;;;1501081;78;711;-74
2022/02/04 15:44:19;;;;;;;;;;;24.30;45.20;;;;;;1491469;78;1507;-76
2022/02/04 15:46:36;;;;;;;;;;;24.30;45.20;;;;;;1486561;78;1384;-76
2022/02/04 15:50:58;;;;;;;;;;;24.30;45.20;;;;;;1494617;78;1674;-75
2022/02/04 15:52:58;;;;;;;;;;;24.30;45.20;;;;;;1485219;78;1081;-75
2022/02/04 15:57:15;;;;;;;;;;;24.30;45.30;;;;;;1484660;78;804;-74
2022/02/04 15:59:11;;;;;;;;;;;24.30;45.30;;;;;;1481791;78;1649;-75
2022/02/04 16:01:29;;;;;;;;;;;24.30;45.30;;;;;;1485745;78;1672;-73
2022/02/04 16:05:37;;;;;;;;;;;24.20;45.20;;;;;;1488541;78;853;-73
2022/02/04 16:07:40;;;;;;;;;;;24.20;45.20;;;;;;1484513;78;1138;-73
2022/02/04 16:09:43;;;;;;;;;;;24.30;45.30;;;;;;1492744;78;1924;-73
2022/02/04 16:13:55;;;;;;;;;;;24.30;45.40;;;;;;1483375;78;1201;-73
2022/02/04 16:15:58;;;;;;;;;;;24.30;45.40;;;;;;1488773;78;1118;-72
2022/02/04 16:17:58;;;;;;;;;;;24.20;45.20;;;;;;1491924;78;1482;-72
2022/02/04 16:26:45;;;;;;;;;;;24.30;45.40;;;;;;1492012;78;881;-73
2022/02/04 16:28:41;;;;;;;;;;;24.20;45.30;;;;;;1491476;77;1942;-73
2022/02/04 16:30:40;;;;;;;;;;;24.20;45.30;;;;;;1480848;78;1059;-73
2022/02/04 16:32:42;;;;;;;;;;;24.20;45.30;;;;;;1492108;78;1148;-72
2022/02/04 16:34:52;;;;;;;;;;;24.30;45.50;;;;;;1479687;78;737;-75
2022/02/04 16:36:49;;;;;;;;;;;24.20;45.40;;;;;;1481631;78;1640;-73
2022/02/04 16:38:55;;;;;;;;;;;24.30;45.50;;;;;;1495171;78;687;-73
2022/02/04 16:41:03;;;;;;;;;;;24.20;45.40;;;;;;1490616;78;743;-73
2022/02/04 16:43:01;;;;;;;;;;;24.20;45.40;;;;;;1491255;78;1162;-73
2022/02/04 16:45:03;;;;;;;;;;;24.30;45.50;;;;;;1484155;78;760;-74
2022/02/04 16:47:05;;;;;;;;;;;24.20;45.30;;;;;;1490250;78;737;-71
2022/02/04 16:49:07;;;;;;;;;;;24.20;45.30;;;;;;1482091;78;1938;-71
2022/02/04 16:51:10;;;;;;;;;;;24.20;45.30;;;;;;1484613;78;764;-70
2022/02/04 16:53:12;;;;;;;;;;;24.30;45.50;;;;;;1486917;78;1165;-70
2022/02/04 16:55:14;;;;;;;;;;;24.20;45.30;;;;;;1481244;78;694;-69
2022/02/04 16:57:16;;;;;;;;;;;24.20;45.30;;;;;;1479841;78;801;-69
2022/02/04 16:59:18;;;;;;;;;;;24.20;45.40;;;;;;1476107;78;763;-71
2022/02/04 17:01:20;;;;;;;;;;;24.20;45.30;;;;;;1496792;78;812;-71
2022/02/04 17:03:22;;;;;;;;;;;24.20;45.30;;;;;;1460340;80;1146;-75
2022/02/04 17:05:26;;;;;;;;;;;24.20;45.30;;;;;;1492247;78;688;-72
2022/02/04 17:07:28;;;;;;;;;;;24.30;45.50;;;;;;1483754;78;801;-69
2022/02/04 17:09:39;;;;;;;;;;;24.20;45.40;;;;;;1487656;78;1917;-73
2022/02/04 17:11:40;;;;;;;;;;;24.30;45.60;;;;;;1491480;78;1610;-72
2022/02/04 17:13:37;;;;;;;;;;;24.20;45.50;;;;;;1486744;78;1710;-72
2022/02/04 17:15:39;;;;;;;;;;;24.20;45.50;;;;;;1483978;78;691;-78
2022/02/04 17:17:41;;;;;;;;;;;24.30;45.60;;;;;;1485489;78;747;-71
2022/02/04 17:19:51;;;;;;;;;;;24.30;45.60;;;;;;1481926;78;747;-73
2022/02/04 17:21:49;;;;;;;;;;;24.30;45.70;;;;;;1478449;78;1110;-72
2022/02/04 17:23:52;;;;;;;;;;;24.30;45.60;;;;;;1504595;77;1168;-72
2022/02/04 17:25:55;;;;;;;;;;;24.30;45.70;;;;;;1485319;78;1475;-72
2022/02/04 17:27:57;;;;;;;;;;;24.30;45.70;;;;;;1485938;78;674;-74
2022/02/04 17:29:59;;;;;;;;;;;24.40;45.70;;;;;;1494376;78;1935;-74
2022/02/04 17:32:01;;;;;;;;;;;24.30;45.70;;;;;;1478666;78;735;-71
2022/02/04 17:34:03;;;;;;;;;;;24.30;45.70;;;;;;1503844;78;1129;-72
2022/02/04 17:36:05;;;;;;;;;;;24.40;45.80;;;;;;1479746;78;793;-74
2022/02/04 17:38:07;;;;;;;;;;;24.30;45.80;;;;;;1491423;78;793;-71
2022/02/04 17:40:10;;;;;;;;;;;24.30;45.80;;;;;;1489883;78;751;-72
2022/02/04 17:42:12;;;;;;;;;;;24.30;45.90;;;;;;1485301;78;808;-71
2022/02/04 17:44:17;;;;;;;;;;;24.40;45.90;;;;;;1484022;78;1136;-77